Time;durP1;ratioP1;P1;durP2;ratioP2;P2;SDS_P1;SDS_P2;PMS_P1;PMS_P2;Temp;Humidity;BMP_temperature;BMP_pressure;BME280_temperature;BME280_humidity;BME280_pressure;Samples;Min_cycle;Max_cycle;Signal;HPM_P1;HPM_P2
2022/06/19 00:01:12;;;;;;;13.05;3.50;;;;;;;;;;4990533;28;20088;-70
2022/06/19 00:03:50;;;;;;;10.00;3.33;;;;;;;;;;4984137;28;20449;-70
2022/06/19 00:06:17;;;;;;;12.93;4.07;;;;;;;;;;4991156;28;20058;-70
2022/06/19 00:08:45;;;;;;;9.75;3.40;;;;;;;;;;4991437;28;20042;-71
2022/06/19 00:11:11;;;;;;;14.95;4.15;;;;;;;;;;4988843;28;20030;-71
2022/06/19 00:13:38;;;;;;;16.58;4.03;;;;;;;;;;4990376;28;20029;-70
2022/06/19 00:16:04;;;;;;;14.10;3.72;;;;;;;;;;4989817;28;20035;-71
2022/06/19 00:18:30;;;;;;;15.60;3.85;;;;;;;;;;4968885;28;20034;-69
2022/06/19 00:20:56;;;;;;;12.05;3.80;;;;;;;;;;4990654;28;20038;-69
2022/06/19 00:23:21;;;;;;;15.00;4.47;;;;;;;;;;4991378;28;20033;-71
2022/06/19 00:25:47;;;;;;;12.07;4.60;;;;;;;;;;4987065;28;20542;-71
2022/06/19 00:28:12;;;;;;;17.30;4.20;;;;;;;;;;4988199;28;20371;-71
2022/06/19 00:30:38;;;;;;;14.35;3.78;;;;;;;;;;4990729;28;20116;-70
2022/06/19 00:33:03;;;;;;;11.40;3.45;;;;;;;;;;4985196;28;20711;-70
2022/06/19 00:35:30;;;;;;;13.75;4.00;;;;;;;;;;4990062;28;20086;-70
2022/06/19 00:37:56;;;;;;;15.18;3.90;;;;;;;;;;4980150;28;20038;-71
2022/06/19 00:40:23;;;;;;;15.20;3.90;;;;;;;;;;4981954;28;20494;-70
2022/06/19 00:42:48;;;;;;;13.20;3.95;;;;;;;;;;4984987;28;20490;-71
2022/06/19 00:45:32;;;;;;;11.95;3.35;;;;;;;;;;4984930;28;20065;-71
2022/06/19 00:48:00;;;;;;;13.73;3.50;;;;;;;;;;4986261;28;21059;-71
2022/06/19 00:50:33;;;;;;;15.43;4.28;;;;;;;;;;4985816;28;20548;-72
2022/06/19 00:53:01;;;;;;;19.00;4.28;;;;;;;;;;4987379;28;20037;-70
2022/06/19 00:55:30;;;;;;;14.00;3.55;;;;;;;;;;4983350;28;20049;-69
2022/06/19 00:58:04;;;;;;;13.90;3.80;;;;;;;;;;4985810;28;20561;-71
2022/06/19 01:00:30;;;;;;;13.48;3.80;;;;;;;;;;4966556;28;20529;-71
2022/06/19 01:03:01;;;;;;;14.20;3.75;;;;;;;;;;4984630;28;20043;-72
2022/06/19 01:05:29;;;;;;;16.52;4.82;;;;;;;;;;4985525;28;20042;-71
2022/06/19 01:07:59;;;;;;;15.27;4.20;;;;;;;;;;4986784;28;20430;-70
2022/06/19 01:10:24;;;;;;;11.73;3.92;;;;;;;;;;4986137;28;20123;-69
2022/06/19 01:12:50;;;;;;;18.45;4.00;;;;;;;;;;4987973;28;20175;-70
2022/06/19 01:15:19;;;;;;;15.23;3.42;;;;;;;;;;4987023;28;20124;-71
2022/06/19 01:17:47;;;;;;;16.42;3.53;;;;;;;;;;4986657;28;20510;-71
2022/06/19 01:20:15;;;;;;;17.08;3.55;;;;;;;;;;4988830;28;20026;-70
2022/06/19 01:23:04;;;;;;;10.20;3.25;;;;;;;;;;4990281;28;20037;-69
2022/06/19 01:25:34;;;;;;;12.05;3.42;;;;;;;;;;5008432;28;20117;-71
2022/06/19 01:30:53;;;;;;;13.73;3.80;;;;;;;;;;5005726;28;20093;-70
2022/06/19 01:33:47;;;;;;;13.45;3.45;;;;;;;;;;5009390;28;20052;-71
2022/06/19 01:36:15;;;;;;;18.17;4.07;;;;;;;;;;5005627;28;20038;-70
2022/06/19 01:38:46;;;;;;;17.15;3.60;;;;;;;;;;5007194;28;20080;-71
2022/06/19 01:41:19;;;;;;;16.45;3.30;;;;;;;;;;5003603;28;20547;-70
2022/06/19 01:43:46;;;;;;;13.25;3.17;;;;;;;;;;5008068;28;20033;-70
2022/06/19 01:46:15;;;;;;;13.60;3.80;;;;;;;;;;5009072;28;20401;-71
2022/06/19 01:48:41;;;;;;;15.82;3.55;;;;;;;;;;5007177;28;20146;-70
2022/06/19 01:51:08;;;;;;;17.25;3.85;;;;;;;;;;5000469;28;20064;-70
2022/06/19 01:53:56;;;;;;;13.55;3.17;;;;;;;;;;5000005;28;20037;-71
2022/06/19 01:56:22;;;;;;;16.45;3.65;;;;;;;;;;5001497;28;20108;-70
2022/06/19 01:58:52;;;;;;;16.00;3.42;;;;;;;;;;5002858;28;20036;-71
2022/06/19 02:01:17;;;;;;;22.85;3.45;;;;;;;;;;5002073;28;20037;-71
2022/06/19 02:03:44;;;;;;;15.27;3.20;;;;;;;;;;5004733;28;20172;-71
2022/06/19 02:06:12;;;;;;;14.32;3.35;;;;;;;;;;5005158;28;20073;-71
2022/06/19 02:08:39;;;;;;;18.08;3.45;;;;;;;;;;5003844;28;20371;-71
2022/06/19 02:11:05;;;;;;;14.88;3.50;;;;;;;;;;5003099;28;20056;-70
2022/06/19 02:13:34;;;;;;;11.60;3.70;;;;;;;;;;5007854;28;20532;-71
2022/06/19 02:16:03;;;;;;;10.98;3.15;;;;;;;;;;4987659;28;20042;-70
2022/06/19 02:18:33;;;;;;;16.35;3.83;;;;;;;;;;5002990;28;20033;-70
2022/06/19 02:20:59;;;;;;;14.45;3.00;;;;;;;;;;5004492;28;20046;-70
2022/06/19 02:23:35;;;;;;;15.02;4.22;;;;;;;;;;4986795;28;20035;-70
2022/06/19 02:26:02;;;;;;;14.07;3.72;;;;;;;;;;5005662;28;20601;-70
2022/06/19 02:28:28;;;;;;;12.98;3.72;;;;;;;;;;5005556;28;20049;-70
2022/06/19 02:30:54;;;;;;;12.60;3.63;;;;;;;;;;5005921;28;20038;-70
2022/06/19 02:33:24;;;;;;;13.30;3.67;;;;;;;;;;5005757;28;20379;-70
2022/06/19 02:35:49;;;;;;;10.50;3.03;;;;;;;;;;5006500;28;20052;-70
2022/06/19 02:38:18;;;;;;;21.92;3.67;;;;;;;;;;5006165;28;20022;-69
2022/06/19 02:40:50;;;;;;;11.27;3.38;;;;;;;;;;5004480;28;20033;-70
2022/06/19 02:43:18;;;;;;;17.73;3.55;;;;;;;;;;5007049;28;20481;-69
2022/06/19 02:45:44;;;;;;;13.90;3.47;;;;;;;;;;5006590;28;20065;-70
2022/06/19 02:48:22;;;;;;;10.90;2.97;;;;;;;;;;5006317;28;20065;-71
2022/06/19 02:50:48;;;;;;;12.10;3.78;;;;;;;;;;5004087;28;20733;-71
2022/06/19 02:53:15;;;;;;;12.57;3.05;;;;;;;;;;5006771;28;20026;-71
2022/06/19 02:55:40;;;;;;;15.52;3.58;;;;;;;;;;5006644;28;20040;-70
2022/06/19 02:58:06;;;;;;;11.05;3.42;;;;;;;;;;5006438;28;20046;-71
2022/06/19 03:00:32;;;;;;;16.00;3.25;;;;;;;;;;4988105;28;20042;-70
2022/06/19 03:03:24;;;;;;;11.98;3.08;;;;;;;;;;5001002;28;20509;-71
2022/06/19 03:05:49;;;;;;;13.70;3.50;;;;;;;;;;5004089;28;20045;-71
2022/06/19 03:08:14;;;;;;;15.27;3.45;;;;;;;;;;5003403;28;20418;-71
2022/06/19 03:10:40;;;;;;;16.48;3.30;;;;;;;;;;5006481;28;20032;-71
2022/06/19 03:13:05;;;;;;;14.38;3.90;;;;;;;;;;5007401;28;20096;-71
2022/06/19 03:15:31;;;;;;;17.67;3.15;;;;;;;;;;5008162;28;20030;-70
2022/06/19 03:17:57;;;;;;;14.55;4.00;;;;;;;;;;5007635;28;20072;-70
2022/06/19 03:20:24;;;;;;;14.40;3.53;;;;;;;;;;5005680;28;20119;-70
2022/06/19 03:22:50;;;;;;;13.38;3.15;;;;;;;;;;5009638;28;20113;-69
2022/06/19 03:25:15;;;;;;;20.52;3.40;;;;;;;;;;5006838;28;20611;-71
2022/06/19 03:27:41;;;;;;;11.18;2.90;;;;;;;;;;5007794;28;20046;-71
2022/06/19 03:30:07;;;;;;;12.00;3.20;;;;;;;;;;4990321;28;20037;-71
2022/06/19 03:32:33;;;;;;;16.33;3.47;;;;;;;;;;5005671;28;20100;-70
2022/06/19 03:34:58;;;;;;;12.40;3.78;;;;;;;;;;5006458;28;20038;-69
2022/06/19 03:37:23;;;;;;;15.15;3.05;;;;;;;;;;4989490;28;20042;-70
2022/06/19 03:39:50;;;;;;;12.05;2.90;;;;;;;;;;5006651;28;20042;-70
2022/06/19 03:42:16;;;;;;;14.75;3.28;;;;;;;;;;5005523;28;20124;-71
2022/06/19 03:44:41;;;;;;;16.05;4.00;;;;;;;;;;5007027;28;20451;-71
2022/06/19 03:47:07;;;;;;;11.60;3.13;;;;;;;;;;5006697;28;20037;-70
2022/06/19 03:49:33;;;;;;;13.68;3.53;;;;;;;;;;5006925;28;20069;-71
2022/06/19 03:51:58;;;;;;;10.75;3.08;;;;;;;;;;5008097;28;20029;-71
2022/06/19 03:54:23;;;;;;;9.65;3.33;;;;;;;;;;5007604;28;20483;-71
2022/06/19 03:56:49;;;;;;;13.50;3.40;;;;;;;;;;5005447;28;20038;-71
2022/06/19 03:59:14;;;;;;;12.27;2.92;;;;;;;;;;5005984;28;20038;-71
2022/06/19 04:01:40;;;;;;;16.45;2.85;;;;;;;;;;4991892;28;20112;-71
2022/06/19 04:04:07;;;;;;;15.05;2.88;;;;;;;;;;5006734;28;20034;-71
2022/06/19 04:06:35;;;;;;;14.32;3.22;;;;;;;;;;4991167;28;20502;-70
2022/06/19 04:09:02;;;;;;;10.90;2.80;;;;;;;;;;4989186;28;20030;-71
2022/06/19 04:11:29;;;;;;;14.90;3.47;;;;;;;;;;5008497;28;20540;-70
2022/06/19 04:13:56;;;;;;;14.13;3.45;;;;;;;;;;4990076;28;20072;-70
2022/06/19 04:16:24;;;;;;;15.82;3.47;;;;;;;;;;5006605;28;20485;-70
2022/06/19 04:18:51;;;;;;;15.25;3.45;;;;;;;;;;5004894;28;20112;-70
2022/06/19 04:21:19;;;;;;;15.48;3.53;;;;;;;;;;5006798;28;20124;-69
2022/06/19 04:23:45;;;;;;;13.07;3.80;;;;;;;;;;5005709;28;20042;-69
2022/06/19 04:26:14;;;;;;;15.10;4.07;;;;;;;;;;5009012;28;20030;-71
2022/06/19 04:28:40;;;;;;;10.30;3.47;;;;;;;;;;4987172;28;20386;-72
2022/06/19 04:31:06;;;;;;;10.98;2.88;;;;;;;;;;5004277;28;20560;-71
2022/06/19 04:33:37;;;;;;;18.05;3.47;;;;;;;;;;5008364;28;20030;-70
2022/06/19 04:36:03;;;;;;;11.63;3.33;;;;;;;;;;5009641;28;20494;-71
2022/06/19 04:38:29;;;;;;;15.45;3.58;;;;;;;;;;5012610;28;20087;-71
2022/06/19 04:40:55;;;;;;;16.95;3.22;;;;;;;;;;5007884;28;20030;-71
2022/06/19 04:43:20;;;;;;;12.13;3.28;;;;;;;;;;5010601;28;20030;-71
2022/06/19 04:45:46;;;;;;;15.90;3.40;;;;;;;;;;5008061;28;20061;-71
2022/06/19 04:48:13;;;;;;;16.10;3.58;;;;;;;;;;5004972;28;20038;-71
2022/06/19 04:50:39;;;;;;;21.50;4.10;;;;;;;;;;5006101;28;20125;-70
2022/06/19 04:53:04;;;;;;;12.57;3.75;;;;;;;;;;5004992;28;20541;-70
2022/06/19 04:55:29;;;;;;;10.68;3.20;;;;;;;;;;5006600;28;20105;-70
2022/06/19 04:58:02;;;;;;;14.95;3.58;;;;;;;;;;5009057;28;20501;-70
2022/06/19 05:00:28;;;;;;;14.40;3.13;;;;;;;;;;4989830;28;20524;-70
2022/06/19 05:02:54;;;;;;;12.23;3.08;;;;;;;;;;5003733;28;20486;-70
2022/06/19 05:05:21;;;;;;;17.48;3.63;;;;;;;;;;5004698;28;20026;-70
2022/06/19 05:07:47;;;;;;;12.60;3.40;;;;;;;;;;5006311;28;20030;-70
2022/06/19 05:10:12;;;;;;;12.40;2.88;;;;;;;;;;5004671;28;20363;-70
2022/06/19 05:12:38;;;;;;;12.77;3.40;;;;;;;;;;5004697;28;20070;-71
2022/06/19 05:15:05;;;;;;;14.63;3.13;;;;;;;;;;5005969;28;20030;-71
2022/06/19 05:17:31;;;;;;;12.68;3.05;;;;;;;;;;5007775;28;20053;-71
2022/06/19 05:19:57;;;;;;;14.48;3.92;;;;;;;;;;5004575;28;20053;-71
2022/06/19 05:22:22;;;;;;;16.25;3.92;;;;;;;;;;5003979;28;20043;-71
2022/06/19 05:24:47;;;;;;;10.40;3.35;;;;;;;;;;5004656;28;20042;-71
2022/06/19 05:27:13;;;;;;;13.48;3.55;;;;;;;;;;5004923;28;20113;-71
2022/06/19 05:29:39;;;;;;;15.70;3.63;;;;;;;;;;5003063;28;20061;-70
2022/06/19 05:32:05;;;;;;;12.55;3.03;;;;;;;;;;5005943;28;20402;-70
2022/06/19 05:34:32;;;;;;;16.85;3.50;;;;;;;;;;5006176;28;20029;-70
2022/06/19 05:36:58;;;;;;;20.25;3.63;;;;;;;;;;4987299;28;20034;-70
2022/06/19 05:39:23;;;;;;;15.82;3.70;;;;;;;;;;5005163;28;20452;-70
2022/06/19 05:41:48;;;;;;;16.02;3.92;;;;;;;;;;5004843;28;20545;-70
2022/06/19 05:44:14;;;;;;;16.55;3.95;;;;;;;;;;5005552;28;20493;-70
2022/06/19 05:46:41;;;;;;;12.77;4.00;;;;;;;;;;5006486;28;20108;-70
2022/06/19 05:49:07;;;;;;;20.20;4.03;;;;;;;;;;4989167;28;20045;-71
2022/06/19 05:51:33;;;;;;;12.18;3.83;;;;;;;;;;5004029;28;20037;-70
2022/06/19 05:53:58;;;;;;;17.92;3.25;;;;;;;;;;5002373;28;20049;-71
2022/06/19 05:56:26;;;;;;;13.05;3.97;;;;;;;;;;5001859;28;20045;-70
2022/06/19 05:58:51;;;;;;;16.30;4.00;;;;;;;;;;4986475;28;20042;-70
2022/06/19 06:01:18;;;;;;;14.90;3.60;;;;;;;;;;4984990;28;20134;-71
2022/06/19 06:03:44;;;;;;;13.88;3.42;;;;;;;;;;4984904;28;20034;-72
2022/06/19 06:06:22;;;;;;;14.13;4.05;;;;;;;;;;4985614;28;20036;-71
2022/06/19 06:08:47;;;;;;;13.00;3.80;;;;;;;;;;4984831;28;20049;-71
2022/06/19 06:11:14;;;;;;;18.70;3.78;;;;;;;;;;4987332;28;20378;-70
2022/06/19 06:13:40;;;;;;;15.75;3.83;;;;;;;;;;4987297;28;20466;-71
2022/06/19 06:16:05;;;;;;;15.45;3.88;;;;;;;;;;4985132;28;20046;-70
2022/06/19 06:18:31;;;;;;;19.35;4.20;;;;;;;;;;4987387;28;20502;-71
2022/06/19 06:21:01;;;;;;;18.20;3.72;;;;;;;;;;4984020;28;20530;-71
2022/06/19 06:23:28;;;;;;;13.98;3.75;;;;;;;;;;4985892;28;20413;-70
2022/06/19 06:26:00;;;;;;;11.98;3.47;;;;;;;;;;4985997;28;20038;-71
2022/06/19 06:28:26;;;;;;;;;;;;;;;;;;4982057;28;20054;-68
2022/06/19 06:30:51;;;;;;;18.67;4.32;;;;;;;;;;4984166;28;20408;-71
2022/06/19 06:33:17;;;;;;;17.00;4.10;;;;;;;;;;4986383;28;20042;-69
2022/06/19 06:35:42;;;;;;;13.13;3.85;;;;;;;;;;4988256;28;20038;-70
2022/06/19 06:38:07;;;;;;;16.55;3.60;;;;;;;;;;4989459;28;20026;-71
2022/06/19 06:40:33;;;;;;;14.00;3.80;;;;;;;;;;4987716;28;20437;-71
2022/06/19 06:42:58;;;;;;;13.23;4.13;;;;;;;;;;4966984;28;20031;-71
2022/06/19 06:45:24;;;;;;;14.02;3.88;;;;;;;;;;4971539;28;20042;-70
2022/06/19 06:47:50;;;;;;;12.88;4.00;;;;;;;;;;4987862;28;20068;-71
2022/06/19 06:50:16;;;;;;;12.77;3.78;;;;;;;;;;4982668;28;20038;-71
2022/06/19 06:52:41;;;;;;;17.60;4.47;;;;;;;;;;4990420;28;20026;-71
2022/06/19 06:55:07;;;;;;;12.40;4.00;;;;;;;;;;4988143;28;20449;-71
2022/06/19 06:57:32;;;;;;;16.90;4.60;;;;;;;;;;4987386;28;20077;-71
2022/06/19 06:59:58;;;;;;;12.23;4.03;;;;;;;;;;4986410;28;20041;-71
2022/06/19 07:02:23;;;;;;;15.27;4.13;;;;;;;;;;4984595;28;20038;-71
2022/06/19 07:04:49;;;;;;;19.23;4.80;;;;;;;;;;4985101;28;20431;-71
2022/06/19 07:07:14;;;;;;;15.95;3.90;;;;;;;;;;4984410;28;20927;-70
2022/06/19 07:09:39;;;;;;;15.38;4.32;;;;;;;;;;4986261;28;20057;-70
2022/06/19 07:12:05;;;;;;;16.77;4.18;;;;;;;;;;4984325;28;20037;-71
2022/06/19 07:14:30;;;;;;;11.77;4.22;;;;;;;;;;4984465;28;20042;-73
2022/06/19 07:16:56;;;;;;;15.30;4.60;;;;;;;;;;4983123;28;20389;-70
2022/06/19 07:19:21;;;;;;;14.32;4.20;;;;;;;;;;4980903;28;20035;-70
2022/06/19 07:21:47;;;;;;;10.02;4.65;;;;;;;;;;4986698;28;20133;-70
2022/06/19 07:24:12;;;;;;;14.07;5.00;;;;;;;;;;4983299;28;20037;-70
2022/06/19 07:26:38;;;;;;;15.68;4.50;;;;;;;;;;4986595;28;20035;-70
2022/06/19 07:29:04;;;;;;;13.23;4.72;;;;;;;;;;4986452;28;20057;-70
2022/06/19 07:31:30;;;;;;;17.40;4.75;;;;;;;;;;4991030;28;20497;-70
2022/06/19 07:33:55;;;;;;;7.95;4.50;;;;;;;;;;4984558;28;20376;-70
2022/06/19 07:36:22;;;;;;;17.88;4.80;;;;;;;;;;4983293;28;20491;-70
2022/06/19 07:38:48;;;;;;;17.58;4.97;;;;;;;;;;4986919;28;20043;-70
2022/06/19 07:41:14;;;;;;;16.95;4.63;;;;;;;;;;4983768;28;20038;-69
2022/06/19 07:43:39;;;;;;;15.52;4.88;;;;;;;;;;4987143;28;20030;-70
2022/06/19 07:46:06;;;;;;;11.20;4.22;;;;;;;;;;4987514;28;20045;-70
2022/06/19 07:51:16;;;;;;;13.75;4.93;;;;;;;;;;4984785;28;20073;-70
2022/06/19 07:53:41;;;;;;;14.63;4.78;;;;;;;;;;4984606;28;20058;-70
2022/06/19 07:56:07;;;;;;;11.80;5.05;;;;;;;;;;4983418;28;20565;-70
2022/06/19 07:58:36;;;;;;;10.00;4.25;;;;;;;;;;4987362;28;20486;-69
2022/06/19 08:01:02;;;;;;;17.40;4.78;;;;;;;;;;4988034;28;20523;-69
2022/06/19 08:03:28;;;;;;;10.00;4.63;;;;;;;;;;4988147;28;20133;-69
2022/06/19 08:05:53;;;;;;;15.02;5.22;;;;;;;;;;4985903;28;20384;-68
2022/06/19 08:08:24;;;;;;;17.65;4.85;;;;;;;;;;4983973;28;20033;-68
2022/06/19 08:10:51;;;;;;;14.27;4.70;;;;;;;;;;4984827;28;20339;-69
2022/06/19 08:13:20;;;;;;;15.13;4.70;;;;;;;;;;4987667;28;20038;-68
2022/06/19 08:15:53;;;;;;;11.20;4.72;;;;;;;;;;4987100;28;20034;-69
2022/06/19 08:18:20;;;;;;;9.32;4.78;;;;;;;;;;4983262;28;20038;-68
2022/06/19 08:20:46;;;;;;;15.90;4.82;;;;;;;;;;4987896;28;20537;-71
2022/06/19 08:23:13;;;;;;;11.38;4.95;;;;;;;;;;4985958;28;20216;-70
2022/06/19 08:25:38;;;;;;;10.77;4.22;;;;;;;;;;4988934;28;20082;-70
2022/06/19 08:28:04;;;;;;;10.30;4.63;;;;;;;;;;4986878;28;20023;-70
2022/06/19 08:30:36;;;;;;;7.78;4.35;;;;;;;;;;4987012;28;20046;-70
2022/06/19 08:33:04;;;;;;;;;;;;;;;;;;4990113;28;20035;-68
2022/06/19 08:35:33;;;;;;;10.63;4.38;;;;;;;;;;4990362;28;19972;-71
2022/06/19 08:38:04;;;;;;;11.23;4.47;;;;;;;;;;4990972;28;20359;-71
2022/06/19 08:40:42;;;;;;;8.95;4.18;;;;;;;;;;5007323;28;20038;-71
2022/06/19 08:43:19;;;;;;;9.38;4.53;;;;;;;;;;5007975;28;20569;-70
2022/06/19 08:46:12;;;;;;;11.52;4.47;;;;;;;;;;5007050;28;20050;-69
2022/06/19 08:48:53;;;;;;;8.55;4.80;;;;;;;;;;5003424;28;20050;-71
2022/06/19 08:51:24;;;;;;;13.77;4.57;;;;;;;;;;5005868;28;20084;-70
2022/06/19 08:54:08;;;;;;;12.88;4.57;;;;;;;;;;4989899;28;20038;-70
2022/06/19 08:56:37;;;;;;;12.02;4.60;;;;;;;;;;5002754;28;20034;-70
2022/06/19 08:59:29;;;;;;;12.35;4.65;;;;;;;;;;5004176;28;20026;-70
2022/06/19 09:02:05;;;;;;;9.63;4.03;;;;;;;;;;5006168;28;20029;-70
2022/06/19 09:07:51;;;;;;;13.50;4.40;;;;;;;;;;5006308;28;20045;-69
2022/06/19 09:10:40;;;;;;;11.90;4.60;;;;;;;;;;5004006;28;20048;-70
2022/06/19 09:13:28;;;;;;;11.35;4.03;;;;;;;;;;5002583;28;20377;-70
2022/06/19 09:16:05;;;;;;;13.70;4.20;;;;;;;;;;5007085;28;20616;-70
2022/06/19 09:18:33;;;;;;;11.25;4.50;;;;;;;;;;5007223;28;20049;-70
2022/06/19 09:21:16;;;;;;;10.93;4.90;;;;;;;;;;5006936;28;20041;-70
2022/06/19 09:23:44;;;;;;;8.63;4.60;;;;;;;;;;5006620;28;20095;-70
2022/06/19 09:26:31;;;;;;;15.30;5.13;;;;;;;;;;5006165;28;20030;-70
2022/06/19 09:29:11;;;;;;;14.32;4.90;;;;;;;;;;5004737;28;20772;-70
2022/06/19 09:32:15;;;;;;;9.80;4.63;;;;;;;;;;5006562;28;20352;-70
2022/06/19 09:34:56;;;;;;;11.20;4.68;;;;;;;;;;5004844;28;20125;-70
2022/06/19 09:37:38;;;;;;;13.13;4.50;;;;;;;;;;5002962;28;20046;-69
2022/06/19 09:40:07;;;;;;;9.27;4.32;;;;;;;;;;5003840;28;20038;-69
2022/06/19 09:42:55;;;;;;;10.85;4.07;;;;;;;;;;5001846;28;20041;-69
2022/06/19 09:45:37;;;;;;;13.68;4.70;;;;;;;;;;5002784;28;20090;-69
2022/06/19 09:48:10;;;;;;;18.52;4.82;;;;;;;;;;5001936;28;20064;-68
2022/06/19 09:50:49;;;;;;;8.88;4.40;;;;;;;;;;5003708;28;20123;-69
2022/06/19 09:53:19;;;;;;;9.80;3.88;;;;;;;;;;5003628;28;20117;-70
2022/06/19 09:55:49;;;;;;;13.10;4.43;;;;;;;;;;5003998;28;20060;-70
2022/06/19 09:58:24;;;;;;;8.27;3.83;;;;;;;;;;5002725;28;20050;-70
2022/06/19 10:00:56;;;;;;;13.88;4.18;;;;;;;;;;5003764;28;20037;-69
2022/06/19 10:03:27;;;;;;;18.85;4.18;;;;;;;;;;5005311;28;20070;-70
2022/06/19 10:06:33;;;;;;;10.40;3.80;;;;;;;;;;5003363;28;20046;-69
2022/06/19 10:09:12;;;;;;;11.80;4.32;;;;;;;;;;4974650;28;20038;-70
2022/06/19 10:11:41;;;;;;;12.25;4.15;;;;;;;;;;5003011;28;20536;-70
2022/06/19 10:14:43;;;;;;;9.30;4.05;;;;;;;;;;5002486;28;20060;-70
2022/06/19 10:17:18;;;;;;;14.32;4.15;;;;;;;;;;4941056;28;20113;-70
2022/06/19 10:19:51;;;;;;;11.52;4.72;;;;;;;;;;4998333;28;20041;-70
2022/06/19 10:22:44;;;;;;;12.65;4.10;;;;;;;;;;5003246;28;20030;-70
2022/06/19 10:25:09;;;;;;;13.07;3.95;;;;;;;;;;5005444;28;20065;-70
2022/06/19 10:28:12;;;;;;;11.93;3.95;;;;;;;;;;5005613;28;20461;-70
2022/06/19 10:30:38;;;;;;;12.75;4.20;;;;;;;;;;4986027;28;20116;-71
2022/06/19 10:33:36;;;;;;;10.93;4.72;;;;;;;;;;5008814;28;20038;-69
2022/06/19 10:36:10;;;;;;;15.05;5.03;;;;;;;;;;5005871;28;20046;-69
2022/06/19 10:38:47;;;;;;;12.52;5.32;;;;;;;;;;5007405;28;20517;-70
2022/06/19 10:44:18;;;;;;;12.30;4.32;;;;;;;;;;5007795;28;20065;-70
2022/06/19 10:46:57;;;;;;;11.55;4.65;;;;;;;;;;5007774;28;20030;-71
2022/06/19 10:49:36;;;;;;;14.90;4.28;;;;;;;;;;5002584;28;20046;-70
2022/06/19 10:52:23;;;;;;;21.92;4.13;;;;;;;;;;5005926;28;21044;-70
2022/06/19 10:55:28;;;;;;;13.70;4.13;;;;;;;;;;5008069;28;20125;-69
2022/06/19 10:57:59;;;;;;;9.30;4.05;;;;;;;;;;4951474;28;20112;-69
2022/06/19 11:00:25;;;;;;;11.68;4.32;;;;;;;;;;4998934;28;20088;-69
2022/06/19 11:05:52;;;;;;;12.00;4.10;;;;;;;;;;5002398;28;20426;-70
2022/06/19 11:08:19;;;;;;;12.45;4.07;;;;;;;;;;5004248;28;20113;-70
2022/06/19 11:10:49;;;;;;;15.07;3.90;;;;;;;;;;5003014;28;20553;-71
2022/06/19 11:13:15;;;;;;;17.48;4.22;;;;;;;;;;5005499;28;20592;-69
2022/06/19 11:16:02;;;;;;;11.85;3.95;;;;;;;;;;4970998;28;20049;-70
2022/06/19 11:18:27;;;;;;;13.43;3.90;;;;;;;;;;5005949;28;20042;-69
2022/06/19 11:20:52;;;;;;;13.43;4.28;;;;;;;;;;5007803;28;20502;-69
2022/06/19 11:23:34;;;;;;;13.52;4.30;;;;;;;;;;5003777;28;20116;-69
2022/06/19 11:26:03;;;;;;;10.70;3.78;;;;;;;;;;5004094;28;20091;-69
2022/06/19 11:28:56;;;;;;;9.73;4.35;;;;;;;;;;5000569;28;20552;-69
2022/06/19 11:31:34;;;;;;;8.95;4.03;;;;;;;;;;5005794;28;20042;-69
2022/06/19 11:34:43;;;;;;;11.40;4.03;;;;;;;;;;5005895;28;20096;-69
2022/06/19 11:36:49;;;;;;;10.00;4.40;;;;;;;;;;5004560;28;20125;-69
2022/06/19 11:39:36;;;;;;;13.48;4.25;;;;;;;;;;5004146;28;20533;-69
2022/06/19 11:42:28;;;;;;;14.55;4.20;;;;;;;;;;5008438;28;20045;-69
2022/06/19 11:45:05;;;;;;;16.27;4.57;;;;;;;;;;5005583;28;20053;-69
2022/06/19 11:47:43;;;;;;;12.73;4.22;;;;;;;;;;5008048;28;20397;-71
2022/06/19 11:50:31;;;;;;;11.90;4.53;;;;;;;;;;5006748;28;20038;-69
2022/06/19 11:53:02;;;;;;;17.77;4.80;;;;;;;;;;4990276;28;20113;-71
2022/06/19 11:55:31;;;;;;;16.40;4.78;;;;;;;;;;4985231;28;20073;-68
2022/06/19 11:58:00;;;;;;;11.98;3.90;;;;;;;;;;5006707;28;20440;-71
2022/06/19 12:00:34;;;;;;;13.20;4.78;;;;;;;;;;5006214;28;20046;-70
2022/06/19 12:03:04;;;;;;;16.85;4.68;;;;;;;;;;5007776;28;20091;-70
2022/06/19 12:05:36;;;;;;;12.07;4.40;;;;;;;;;;5006109;28;20112;-70
2022/06/19 12:08:19;;;;;;;10.98;4.55;;;;;;;;;;5008194;28;20033;-70
2022/06/19 12:10:51;;;;;;;6.75;3.95;;;;;;;;;;5006893;28;20034;-70
2022/06/19 12:13:51;;;;;;;13.70;4.63;;;;;;;;;;5005567;28;20349;-70
2022/06/19 12:16:21;;;;;;;13.32;4.30;;;;;;;;;;4991026;28;20045;-71
2022/06/19 12:18:48;;;;;;;13.70;4.70;;;;;;;;;;5005531;28;20127;-73
2022/06/19 12:21:26;;;;;;;13.98;4.88;;;;;;;;;;4986647;28;20151;-70
2022/06/19 12:24:07;;;;;;;12.77;4.60;;;;;;;;;;5004414;28;20507;-70
2022/06/19 12:26:39;;;;;;;13.10;5.20;;;;;;;;;;5004537;28;20038;-70
2022/06/19 12:29:07;;;;;;;;;;;;;;;;;;5002127;28;20030;-71
2022/06/19 12:31:37;;;;;;;12.57;4.70;;;;;;;;;;5008784;28;21305;-70
2022/06/19 12:34:15;;;;;;;13.98;4.75;;;;;;;;;;5009434;28;20036;-70
2022/06/19 12:36:40;;;;;;;13.38;5.05;;;;;;;;;;5008321;28;20049;-71
2022/06/19 12:39:21;;;;;;;12.95;4.72;;;;;;;;;;5006487;28;20034;-70
2022/06/19 12:42:07;;;;;;;12.95;5.10;;;;;;;;;;5005183;28;20041;-70
2022/06/19 12:44:45;;;;;;;10.60;4.65;;;;;;;;;;5008562;28;20065;-70
2022/06/19 12:47:14;;;;;;;12.18;4.65;;;;;;;;;;5006699;28;20093;-69
2022/06/19 12:50:13;;;;;;;14.60;4.78;;;;;;;;;;5009443;28;20376;-69
2022/06/19 12:52:47;;;;;;;10.75;4.22;;;;;;;;;;5008702;28;20037;-70
2022/06/19 12:55:46;;;;;;;13.68;4.40;;;;;;;;;;5005911;28;20041;-70
2022/06/19 12:58:45;;;;;;;11.23;5.00;;;;;;;;;;5005186;28;20153;-70
2022/06/19 13:01:22;;;;;;;12.93;4.70;;;;;;;;;;5006471;28;20048;-69
2022/06/19 13:04:03;;;;;;;14.27;4.80;;;;;;;;;;5005479;28;20069;-70
2022/06/19 13:06:50;;;;;;;12.00;4.45;;;;;;;;;;5004082;28;20136;-70
2022/06/19 13:09:39;;;;;;;15.70;5.07;;;;;;;;;;5002302;28;20126;-69
2022/06/19 13:12:31;;;;;;;13.90;5.40;;;;;;;;;;5000961;28;20103;-69
2022/06/19 13:15:15;;;;;;;;;;;;;;;;;;4983904;28;20045;-69
2022/06/19 13:17:50;;;;;;;11.90;4.65;;;;;;;;;;5002229;28;19921;-70
2022/06/19 13:21:02;;;;;;;13.65;4.28;;;;;;;;;;5004137;28;20470;-69
2022/06/19 13:23:57;;;;;;;13.70;4.82;;;;;;;;;;4907793;29;20123;-69
2022/06/19 13:29:28;;;;;;;16.25;4.82;;;;;;;;;;5001346;28;20065;-69
2022/06/19 13:31:58;;;;;;;13.43;4.70;;;;;;;;;;4998954;28;20077;-69
2022/06/19 13:34:56;;;;;;;11.00;4.80;;;;;;;;;;5000763;28;20042;-69
2022/06/19 13:37:39;;;;;;;14.68;4.72;;;;;;;;;;4975842;28;20298;-70
2022/06/19 13:40:40;;;;;;;12.68;4.65;;;;;;;;;;5004745;28;20034;-70
2022/06/19 13:43:24;;;;;;;14.75;5.25;;;;;;;;;;5005006;28;20509;-69
2022/06/19 13:46:28;;;;;;;8.85;4.68;;;;;;;;;;5003505;28;20491;-69
2022/06/19 13:49:30;;;;;;;11.07;4.60;;;;;;;;;;5003646;28;20057;-69
2022/06/19 13:52:06;;;;;;;23.75;5.10;;;;;;;;;;5002948;28;20037;-70
2022/06/19 13:54:37;;;;;;;16.10;5.10;;;;;;;;;;5003058;28;20502;-69
2022/06/19 13:57:05;;;;;;;15.27;5.28;;;;;;;;;;4985687;28;20049;-70
2022/06/19 13:59:48;;;;;;;11.52;5.00;;;;;;;;;;5000356;28;20064;-70
2022/06/19 14:02:19;;;;;;;13.52;4.97;;;;;;;;;;5004053;28;20189;-70
2022/06/19 14:05:03;;;;;;;14.07;4.75;;;;;;;;;;5008668;28;20040;-69
2022/06/19 14:07:48;;;;;;;16.00;5.20;;;;;;;;;;5000763;28;20409;-70
2022/06/19 14:10:23;;;;;;;10.15;3.95;;;;;;;;;;5003178;28;20068;-69
2022/06/19 14:13:15;;;;;;;10.98;4.90;;;;;;;;;;5008449;28;20034;-69
2022/06/19 14:15:55;;;;;;;10.65;4.40;;;;;;;;;;5003489;28;20061;-69
2022/06/19 14:18:45;;;;;;;12.30;4.70;;;;;;;;;;5000560;28;20109;-69
2022/06/19 14:21:39;;;;;;;11.13;4.60;;;;;;;;;;5003189;28;20614;-69
2022/06/19 14:24:40;;;;;;;13.93;5.03;;;;;;;;;;5001790;28;20103;-69
2022/06/19 14:27:15;;;;;;;14.23;4.75;;;;;;;;;;5002150;28;20458;-69
2022/06/19 14:29:44;;;;;;;16.98;5.05;;;;;;;;;;4985506;28;20046;-69
2022/06/19 14:32:16;;;;;;;12.15;4.70;;;;;;;;;;5005381;28;20367;-69
2022/06/19 14:34:47;;;;;;;15.13;4.82;;;;;;;;;;5002912;28;20045;-68
2022/06/19 14:37:27;;;;;;;;;;;;;;;;;;4989764;28;20034;-69
2022/06/19 14:39:55;;;;;;;15.75;5.20;;;;;;;;;;5004792;28;20461;-69
2022/06/19 14:42:21;;;;;;;14.98;5.40;;;;;;;;;;4989440;28;20157;-70
2022/06/19 14:45:01;;;;;;;11.25;5.38;;;;;;;;;;5004531;28;20633;-69
2022/06/19 14:47:52;;;;;;;13.95;5.50;;;;;;;;;;5006359;28;20073;-69
2022/06/19 14:50:55;;;;;;;12.68;4.78;;;;;;;;;;5003760;28;20030;-70
2022/06/19 14:53:38;;;;;;;14.57;5.47;;;;;;;;;;5006572;28;20379;-70
2022/06/19 14:56:19;;;;;;;13.00;5.43;;;;;;;;;;5005529;28;20117;-69
2022/06/19 14:58:49;;;;;;;9.82;5.07;;;;;;;;;;5005676;28;20045;-69
2022/06/19 15:01:23;;;;;;;13.70;5.23;;;;;;;;;;5003836;28;20125;-69
2022/06/19 15:04:02;;;;;;;13.88;5.25;;;;;;;;;;4985546;28;20296;-69
2022/06/19 15:06:41;;;;;;;16.70;5.45;;;;;;;;;;5007370;28;20087;-69
2022/06/19 15:09:11;;;;;;;13.90;5.10;;;;;;;;;;5004437;28;20446;-69
2022/06/19 15:11:40;;;;;;;13.40;4.93;;;;;;;;;;4989863;28;20099;-69
2022/06/19 15:14:25;;;;;;;12.48;5.35;;;;;;;;;;5006014;28;20524;-69
2022/06/19 15:16:58;;;;;;;13.40;5.10;;;;;;;;;;5007024;28;20489;-69
2022/06/19 15:19:39;;;;;;;13.20;5.22;;;;;;;;;;5008701;28;20124;-69
2022/06/19 15:22:24;;;;;;;9.43;4.80;;;;;;;;;;4994941;28;20092;-69